Time;durP1;ratioP1;P1;durP2;ratioP2;P2;SDS_P1;SDS_P2;PMS_P1;PMS_P2;Temp;Humidity;BMP_temperature;BMP_pressure;BME280_temperature;BME280_humidity;BME280_pressure;Samples;Min_cycle;Max_cycle;Signal;HPM_P1;HPM_P2
2022/11/07 00:01:14;;;;;;;3.58;1.80;;;9.00;99.90;;;7.92;100.00;97250.63;5071861;28;20426;-75
2022/11/07 00:03:40;;;;;;;2.60;1.80;;;8.90;99.90;;;7.86;100.00;97256.84;5070807;28;20917;-75
2022/11/07 00:06:07;;;;;;;2.10;1.90;;;8.80;99.90;;;7.86;100.00;97248.13;5071397;28;20403;-75
2022/11/07 00:08:33;;;;;;;2.17;1.83;;;8.90;99.90;;;7.76;100.00;97254.00;5071677;28;20399;-75
2022/11/07 00:10:59;;;;;;;2.28;1.80;;;8.80;99.90;;;7.74;100.00;97256.09;5071599;28;20406;-75
2022/11/07 00:13:26;;;;;;;2.53;1.95;;;8.80;99.90;;;7.67;100.00;97269.41;5070531;28;20411;-75
2022/11/07 00:15:52;;;;;;;2.20;1.98;;;8.70;99.90;;;7.68;100.00;97262.28;5071246;28;20433;-74
2022/11/07 00:18:19;;;;;;;3.58;1.83;;;8.70;99.90;;;7.65;100.00;97279.38;5071549;28;20418;-74
2022/11/07 00:20:45;;;;;;;2.40;1.77;;;8.70;99.90;;;7.65;100.00;97289.13;5071421;28;20568;-77
2022/11/07 00:23:11;;;;;;;3.72;2.25;;;8.70;99.90;;;7.78;100.00;97273.84;5070457;28;20421;-74
2022/11/07 00:25:37;;;;;;;3.78;2.10;;;8.70;99.90;;;7.80;100.00;97281.50;5071121;28;20411;-74
2022/11/07 00:28:03;;;;;;;2.95;1.90;;;8.80;99.90;;;7.81;100.00;97287.59;5071279;28;20404;-73
2022/11/07 00:30:29;;;;;;;3.70;2.10;;;8.80;99.90;;;7.81;100.00;97290.22;5071422;28;20411;-73
2022/11/07 00:32:55;;;;;;;2.55;1.70;;;8.80;99.90;;;7.78;100.00;97294.91;5070336;28;20537;-74
2022/11/07 00:35:22;;;;;;;3.40;2.00;;;8.80;99.90;;;7.81;100.00;97293.66;5070873;28;20400;-74
2022/11/07 00:37:48;;;;;;;3.30;1.88;;;8.80;99.90;;;7.89;100.00;97295.91;5071209;28;20400;-75
2022/11/07 00:40:14;;;;;;;2.80;1.73;;;8.90;99.90;;;7.92;100.00;97300.69;5071134;28;20494;-75
2022/11/07 00:42:40;;;;;;;2.65;1.90;;;8.90;99.90;;;7.93;100.00;97304.13;5052680;28;20888;-75
2022/11/07 00:45:07;;;;;;;1.98;1.83;;;9.00;99.90;;;7.96;100.00;97298.41;5070577;28;20498;-76
2022/11/07 00:47:33;;;;;;;2.55;1.70;;;9.00;99.90;;;7.90;100.00;97297.50;5071035;28;20403;-75
2022/11/07 00:49:59;;;;;;;2.40;1.73;;;8.90;99.90;;;8.01;100.00;97309.03;5053219;28;20520;-75
2022/11/07 00:52:26;;;;;;;5.50;1.83;;;9.00;99.90;;;8.08;100.00;97312.31;5070914;28;20961;-75
2022/11/07 00:54:52;;;;;;;2.00;1.67;;;9.10;99.90;;;8.05;100.00;97310.16;5069787;28;20407;-75
2022/11/07 00:57:18;;;;;;;2.10;1.70;;;9.00;99.90;;;8.04;100.00;97314.59;5070977;28;20437;-75
2022/11/07 00:59:44;;;;;;;1.53;1.40;;;9.10;99.90;;;8.03;100.00;97313.03;5070493;28;20403;-75
2022/11/07 01:02:10;;;;;;;2.50;2.00;;;9.00;99.90;;;8.01;100.00;97309.84;5069960;28;20408;-76
2022/11/07 01:07:20;;;;;;;2.22;1.75;;;9.00;99.90;;;8.02;100.00;97311.44;5070489;28;20399;-75
2022/11/07 01:09:48;;;;;;;2.55;1.70;;;9.00;99.90;;;7.93;100.00;97307.56;5052375;28;20407;-74
2022/11/07 01:12:13;;;;;;;3.13;1.88;;;9.00;99.90;;;7.87;100.00;97303.25;5070268;28;20404;-75
2022/11/07 01:14:39;;;;;;;3.33;1.88;;;8.90;99.90;;;7.80;100.00;97307.84;5069492;28;20406;-74
2022/11/07 01:17:05;;;;;;;4.20;1.77;;;8.90;99.90;;;7.79;100.00;97301.00;5070152;28;20411;-75
2022/11/07 01:19:31;;;;;;;2.58;1.60;;;8.80;99.90;;;7.76;100.00;97304.06;5070146;28;20427;-74
2022/11/07 01:21:57;;;;;;;3.30;2.03;;;8.80;99.90;;;7.74;100.00;97303.53;5070168;28;20442;-74
2022/11/07 01:24:23;;;;;;;2.78;1.73;;;8.80;99.90;;;7.78;100.00;97307.28;5069097;28;20491;-75
2022/11/07 01:26:50;;;;;;;1.60;1.50;;;8.80;99.90;;;7.73;100.00;97309.84;5070024;28;20987;-75
2022/11/07 01:29:18;;;;;;;4.00;2.00;;;8.80;99.90;;;7.68;100.00;97296.53;5070014;28;20403;-74
2022/11/07 01:31:44;;;;;;;3.92;2.10;;;8.70;99.90;;;7.62;100.00;97300.13;5070080;28;20402;-75
2022/11/07 01:34:10;;;;;;;3.50;2.00;;;8.70;99.90;;;7.64;100.00;97305.97;5069159;28;20392;-74
2022/11/07 01:36:36;;;;;;;2.28;1.60;;;8.70;99.90;;;7.62;100.00;97306.19;5069714;28;20399;-75
2022/11/07 01:39:03;;;;;;;2.42;1.80;;;8.60;99.90;;;7.58;100.00;97296.38;5069939;28;20424;-74
2022/11/07 01:41:32;;;;;;;3.00;1.98;;;8.60;99.90;;;7.51;100.00;97307.03;5069773;28;20465;-75
2022/11/07 01:44:03;;;;;;;2.80;1.98;;;8.60;99.90;;;7.50;100.00;97312.53;5068812;28;20422;-75
2022/11/07 01:46:31;;;;;;;2.88;1.95;;;8.60;99.90;;;7.44;100.00;97309.00;5051767;28;20773;-75
2022/11/07 01:49:07;;;;;;;3.85;1.85;;;8.50;99.90;;;7.39;100.00;97300.97;5069948;28;20416;-75
2022/11/07 01:51:41;;;;;;;3.15;1.75;;;8.50;99.90;;;7.36;100.00;97301.47;5069993;28;21005;-75
2022/11/07 01:54:07;;;;;;;3.38;1.83;;;8.40;99.90;;;7.33;100.00;97302.72;5068968;28;20930;-75
2022/11/07 01:56:37;;;;;;;2.65;1.98;;;8.40;99.90;;;7.31;100.00;97304.78;5084089;22;20489;-71
2022/11/07 01:59:07;;;;;;;5.25;2.45;;;8.40;99.90;;;7.30;100.00;97313.69;5069983;28;20388;-71
2022/11/07 02:01:33;;;;;;;2.87;1.80;;;8.40;99.90;;;7.32;100.00;97316.09;5069962;28;20501;-71
2022/11/07 02:04:00;;;;;;;2.40;1.90;;;8.40;99.90;;;7.31;100.00;97314.50;5068896;28;20411;-71
2022/11/07 02:06:35;;;;;;;2.28;2.00;;;8.40;99.90;;;7.29;100.00;97312.09;5055353;28;20395;-71
2022/11/07 02:09:02;;;;;;;3.50;2.00;;;8.40;99.90;;;7.29;100.00;97303.44;5049693;28;20405;-71
2022/11/07 02:11:28;;;;;;;2.60;1.90;;;8.40;99.90;;;7.35;100.00;97307.75;5049338;28;20442;-71
2022/11/07 02:13:54;;;;;;;3.17;1.95;;;8.40;99.90;;;7.35;100.00;97311.19;5030973;28;20964;-71
2022/11/07 02:16:21;;;;;;;4.10;2.13;;;8.40;99.90;;;7.35;100.00;97305.94;5049433;28;20401;-71
2022/11/07 02:18:47;;;;;;;5.60;2.10;;;8.40;99.90;;;7.36;100.00;97309.38;5049561;28;20409;-71
2022/11/07 02:21:28;;;;;;;2.97;1.90;;;8.40;99.90;;;7.41;100.00;97303.38;5049547;28;20401;-71
2022/11/07 02:24:03;;;;;;;3.80;2.22;;;8.40;99.90;;;7.38;100.00;97307.28;5048621;28;20440;-71
2022/11/07 02:26:30;;;;;;;2.63;2.10;;;8.40;99.90;;;7.37;100.00;97311.75;5049410;28;20433;-71
2022/11/07 02:28:57;;;;;;;5.70;2.33;;;8.40;99.90;;;7.42;100.00;97312.88;5049652;28;20402;-71
2022/11/07 02:31:23;;;;;;;5.32;1.95;;;8.50;99.90;;;7.45;100.00;97312.41;5049499;28;20845;-71
2022/11/07 02:33:49;;;;;;;3.08;2.10;;;8.50;99.90;;;7.48;100.00;97307.50;5048827;28;20879;-71
2022/11/07 02:36:21;;;;;;;3.08;2.20;;;8.50;99.90;;;7.53;100.00;97312.84;5048912;28;20768;-71
2022/11/07 02:38:56;;;;;;;4.22;2.08;;;8.60;99.90;;;7.62;100.00;97310.66;5049292;28;20972;-71
2022/11/07 02:41:25;;;;;;;2.85;2.08;;;8.60;99.90;;;7.64;100.00;97308.59;5049299;28;20401;-71
2022/11/07 02:43:58;;;;;;;2.78;2.10;;;8.70;99.90;;;7.65;100.00;97305.72;5048407;28;20421;-71
2022/11/07 02:46:25;;;;;;;3.75;1.95;;;8.70;99.90;;;7.66;100.00;97306.53;5049156;28;20402;-71
2022/11/07 02:48:56;;;;;;;2.07;1.90;;;8.70;99.90;;;7.68;100.00;97305.25;5049432;28;20393;-71
2022/11/07 02:51:23;;;;;;;2.47;2.08;;;8.70;99.90;;;7.70;100.00;97294.47;5049121;28;20404;-71
2022/11/07 02:53:49;;;;;;;5.10;2.67;;;8.70;99.90;;;7.68;100.00;97299.19;5048303;28;20414;-71
2022/11/07 02:56:15;;;;;;;3.28;2.20;;;8.70;99.90;;;7.75;100.00;97297.19;5031001;28;20397;-71
2022/11/07 02:58:41;;;;;;;6.45;2.40;;;8.80;99.90;;;7.77;100.00;97295.94;5048979;28;20409;-71
2022/11/07 03:01:08;;;;;;;2.90;2.03;;;8.80;99.90;;;7.83;100.00;97301.31;5049137;28;20900;-71
2022/11/07 03:03:34;;;;;;;3.57;2.13;;;8.90;99.90;;;7.88;100.00;97302.22;5048250;28;20538;-71
2022/11/07 03:06:01;;;;;;;5.50;2.30;;;8.90;99.90;;;7.85;100.00;97299.25;5048992;28;20397;-71
2022/11/07 03:08:27;;;;;;;3.63;2.10;;;8.90;99.90;;;7.88;100.00;97291.69;5048806;28;20397;-71
2022/11/07 03:10:53;;;;;;;3.20;2.13;;;8.90;99.90;;;7.91;100.00;97299.09;5049129;28;20818;-71
2022/11/07 03:13:19;;;;;;;1.98;1.80;;;8.90;99.90;;;7.93;100.00;97294.41;5048342;28;20413;-71
2022/11/07 03:15:45;;;;;;;3.50;2.10;;;8.90;99.90;;;7.93;100.00;97301.50;5048994;28;20405;-71
2022/11/07 03:18:12;;;;;;;4.10;2.10;;;8.90;99.90;;;7.97;100.00;97292.88;5049103;28;20931;-71
2022/11/07 03:20:38;;;;;;;2.83;1.90;;;8.90;99.90;;;8.02;100.00;97302.72;5049110;28;20417;-71
2022/11/07 03:23:04;;;;;;;3.60;1.90;;;9.00;99.90;;;8.02;100.00;97297.44;5048052;28;20748;-71
2022/11/07 03:25:30;;;;;;;3.17;2.10;;;9.00;99.90;;;8.06;100.00;97301.19;5051947;28;20539;-71
2022/11/07 03:27:56;;;;;;;3.10;2.30;;;9.10;99.90;;;8.17;100.00;97297.72;5052786;28;20491;-71
2022/11/07 03:30:22;;;;;;;4.03;2.30;;;9.10;99.90;;;8.21;100.00;97301.47;5052554;28;20408;-71
2022/11/07 03:32:50;;;;;;;3.55;1.95;;;9.20;99.90;;;8.19;100.00;97297.50;5051738;28;20470;-71
2022/11/07 03:35:18;;;;;;;2.92;1.85;;;9.20;99.90;;;8.16;100.00;97296.13;5052434;28;20398;-71
2022/11/07 03:37:45;;;;;;;2.22;1.70;;;9.10;99.90;;;8.14;100.00;97304.25;5034706;28;20410;-71
2022/11/07 03:40:11;;;;;;;4.40;1.80;;;9.20;99.90;;;8.14;100.00;97295.53;5052646;28;20397;-71
2022/11/07 03:42:38;;;;;;;2.00;1.80;;;9.10;99.90;;;8.14;100.00;97306.91;5052264;28;20401;-71
2022/11/07 03:45:06;;;;;;;4.13;2.00;;;9.10;99.90;;;8.16;100.00;97298.75;5051485;28;20417;-71
2022/11/07 03:47:33;;;;;;;2.50;1.83;;;9.20;99.90;;;8.18;100.00;97295.88;5052673;28;20405;-71
2022/11/07 03:49:59;;;;;;;4.28;1.95;;;9.20;99.90;;;8.14;100.00;97301.63;5052377;28;20416;-71
2022/11/07 03:52:26;;;;;;;2.15;1.70;;;9.10;99.90;;;8.16;100.00;97302.19;5052211;28;20406;-71
2022/11/07 03:54:52;;;;;;;4.07;2.15;;;9.10;99.90;;;8.12;100.00;97313.44;5051182;28;20397;-71
2022/11/07 03:57:18;;;;;;;3.42;2.10;;;9.10;99.90;;;8.13;100.00;97312.41;5052068;28;20494;-71
2022/11/07 03:59:44;;;;;;;2.67;1.83;;;9.10;99.90;;;8.18;100.00;97315.16;5052061;28;20448;-71
2022/11/07 04:02:10;;;;;;;4.53;2.00;;;9.10;99.90;;;8.18;100.00;97312.50;5034258;28;20409;-71
2022/11/07 04:04:35;;;;;;;6.40;2.03;;;9.20;99.90;;;8.18;100.00;97319.63;5051324;28;20483;-71
2022/11/07 04:07:01;;;;;;;4.88;2.47;;;9.20;99.90;;;8.13;100.00;97321.09;5051869;28;20425;-71
2022/11/07 04:09:29;;;;;;;4.63;2.50;;;9.10;99.90;;;8.34;100.00;97316.25;5050617;28;20420;-71
2022/11/07 04:17:25;;;;;;;3.38;2.05;;;9.30;99.90;;;8.19;100.00;97323.84;5051695;28;20400;-71
2022/11/07 04:19:56;;;;;;;3.38;1.67;;;9.20;99.90;;;8.20;100.00;97322.78;5051574;28;20401;-71
2022/11/07 04:22:23;;;;;;;3.42;2.00;;;9.20;99.90;;;8.17;100.00;97321.44;5051531;28;20813;-71
2022/11/07 04:24:51;;;;;;;3.78;1.83;;;9.20;99.90;;;8.13;100.00;97339.56;5050342;28;20428;-71
2022/11/07 04:30:17;;;;;;;4.35;1.90;;;9.10;99.90;;;8.06;100.00;97335.47;5051663;28;20531;-71
2022/11/07 04:32:44;;;;;;;2.72;1.73;;;9.10;99.90;;;8.03;100.00;97330.69;5050756;28;20405;-71
2022/11/07 04:35:09;;;;;;;6.38;2.10;;;9.00;99.90;;;7.96;100.00;97324.75;5050549;28;20488;-71
2022/11/07 04:37:36;;;;;;;2.83;2.00;;;9.00;99.90;;;7.95;100.00;97342.41;5051407;28;20401;-71
2022/11/07 04:40:05;;;;;;;2.22;1.80;;;9.00;99.90;;;7.91;100.00;97333.34;5051135;28;20477;-71
2022/11/07 04:42:31;;;;;;;4.57;1.85;;;9.00;99.90;;;7.88;100.00;97340.94;5051085;28;20451;-71
2022/11/07 04:44:57;;;;;;;4.00;2.10;;;8.90;99.90;;;7.82;100.00;97336.63;5050201;28;20413;-71
2022/11/07 04:47:22;;;;;;;4.28;2.15;;;8.90;99.90;;;7.72;100.00;97338.00;5050787;28;20448;-71
2022/11/07 04:49:48;;;;;;;2.90;2.00;;;8.80;99.90;;;7.67;100.00;97342.34;5051328;28;20405;-71
2022/11/07 04:52:14;;;;;;;6.05;2.28;;;8.70;99.90;;;7.62;100.00;97350.16;5050950;28;20475;-68
2022/11/07 04:54:40;;;;;;;3.75;2.25;;;8.70;99.90;;;7.55;100.00;97345.03;5050093;28;20429;-70
2022/11/07 04:57:07;;;;;;;4.43;2.20;;;8.60;99.90;;;7.51;100.00;97354.44;5050952;28;20413;-71
2022/11/07 04:59:33;;;;;;;4.70;2.33;;;8.60;99.90;;;7.44;100.00;97353.78;5050824;28;20405;-71
2022/11/07 05:02:00;;;;;;;5.37;2.30;;;8.50;99.90;;;7.39;100.00;97351.00;5050579;28;20401;-70
2022/11/07 05:04:26;;;;;;;6.00;2.30;;;8.50;99.90;;;7.33;100.00;97352.75;5049779;28;20413;-70
2022/11/07 05:06:52;;;;;;;6.60;2.30;;;8.40;99.90;;;7.26;100.00;97351.25;5050540;28;20444;-70
2022/11/07 05:09:18;;;;;;;4.47;2.53;;;8.40;99.90;;;7.21;100.00;97348.53;5050841;28;20401;-70
2022/11/07 05:11:44;;;;;;;9.15;2.53;;;8.30;99.90;;;7.15;100.00;97350.22;5050061;28;20528;-70
2022/11/07 05:14:12;;;;;;;4.05;2.20;;;8.30;99.90;;;7.10;100.00;97344.06;5049312;28;20886;-70
2022/11/07 05:16:40;;;;;;;3.78;2.50;;;8.20;99.90;;;7.08;100.00;97354.00;5049870;28;20484;-70
2022/11/07 05:19:06;;;;;;;4.20;2.33;;;8.20;99.90;;;7.02;100.00;97355.72;5050428;28;20772;-70
2022/11/07 05:21:32;;;;;;;4.13;2.47;;;8.10;99.90;;;6.99;100.00;97353.56;5050440;28;20891;-69
2022/11/07 05:23:58;;;;;;;9.60;2.90;;;8.10;99.90;;;6.95;100.00;97358.47;5049556;28;20460;-70
2022/11/07 05:26:24;;;;;;;6.22;2.90;;;8.00;99.90;;;6.96;100.00;97361.91;5049983;28;20439;-69
2022/11/07 05:28:50;;;;;;;7.38;2.70;;;8.10;99.90;;;6.88;100.00;97349.91;5050286;28;20883;-70
2022/11/07 05:31:17;;;;;;;3.80;2.60;;;8.00;99.90;;;6.85;100.00;97358.22;5050286;28;20405;-70
2022/11/07 05:33:43;;;;;;;7.00;2.60;;;7.90;99.90;;;6.83;100.00;97357.69;5049257;28;20409;-71
2022/11/07 05:36:12;;;;;;;8.95;2.90;;;7.90;99.90;;;6.81;100.00;97351.84;5048425;28;20405;-70
2022/11/07 05:38:40;;;;;;;5.28;2.60;;;7.90;99.90;;;6.81;100.00;97356.28;5048392;28;20431;-70
2022/11/07 05:41:06;;;;;;;3.95;2.58;;;7.90;99.90;;;6.84;100.00;97369.00;5042972;28;20415;-70
2022/11/07 05:43:32;;;;;;;11.23;2.95;;;7.90;99.90;;;6.84;100.00;97369.78;5055036;28;20459;-70
2022/11/07 05:45:59;;;;;;;5.80;2.60;;;8.00;99.90;;;6.84;100.00;97369.00;5039541;28;20449;-70
2022/11/07 05:48:26;;;;;;;6.97;2.90;;;7.90;99.90;;;6.86;100.00;97369.56;5046647;28;20899;-70
2022/11/07 05:50:52;;;;;;;5.63;2.78;;;8.00;99.90;;;6.91;100.00;97370.50;5049637;28;20419;-71
2022/11/07 05:53:20;;;;;;;4.90;2.70;;;8.00;99.90;;;6.95;100.00;97368.19;5049032;28;20826;-71
2022/11/07 05:55:46;;;;;;;6.53;3.08;;;8.00;99.90;;;6.99;100.00;97372.78;5049179;28;20771;-71
2022/11/07 05:58:13;;;;;;;6.47;2.70;;;8.00;99.90;;;6.96;100.00;97375.88;5049895;28;20488;-70
2022/11/07 06:00:39;;;;;;;7.40;2.97;;;8.00;99.90;;;6.97;100.00;97379.31;5048927;28;20495;-70
2022/11/07 06:03:06;;;;;;;10.07;3.08;;;8.10;99.90;;;6.97;100.00;97379.31;5048415;28;20496;-70
2022/11/07 06:05:33;;;;;;;5.18;2.42;;;8.10;99.90;;;6.98;100.00;97386.19;5049374;28;20444;-70
2022/11/07 06:07:59;;;;;;;6.30;2.70;;;8.00;99.90;;;6.97;100.00;97377.47;5049512;28;20848;-70
2022/11/07 06:10:25;;;;;;;9.43;3.70;;;8.10;99.90;;;7.01;100.00;97375.19;5049565;28;20416;-70
2022/11/07 06:12:57;;;;;;;10.77;3.17;;;8.10;99.90;;;7.10;100.00;97379.06;5030954;28;20421;-70
2022/11/07 06:15:23;;;;;;;6.18;3.15;;;8.10;99.90;;;7.11;100.00;97375.41;5042252;28;20421;-69
2022/11/07 06:17:49;;;;;;;6.65;2.60;;;8.20;99.90;;;7.10;100.00;97371.19;5041816;28;20980;-70
2022/11/07 06:20:15;;;;;;;7.90;3.30;;;8.20;99.90;;;7.09;100.00;97364.31;5043991;28;20447;-70
2022/11/07 06:22:42;;;;;;;10.57;2.90;;;8.20;99.90;;;7.14;100.00;97371.53;5048327;28;20409;-70
2022/11/07 06:25:08;;;;;;;7.97;2.70;;;8.20;99.90;;;7.18;100.00;97377.94;5048845;28;20428;-70
2022/11/07 06:27:34;;;;;;;5.80;2.33;;;8.30;99.90;;;7.21;100.00;97382.75;5049544;28;20405;-69
2022/11/07 06:30:00;;;;;;;6.85;2.60;;;8.30;99.90;;;7.26;100.00;97381.03;5049565;28;20416;-70
2022/11/07 06:32:27;;;;;;;7.22;2.65;;;8.30;99.90;;;7.26;100.00;97380.22;5049729;28;20444;-70
2022/11/07 06:34:53;;;;;;;7.28;2.50;;;8.30;99.90;;;7.35;100.00;97378.84;5048419;28;20474;-70
2022/11/07 06:37:19;;;;;;;4.35;2.42;;;8.40;99.90;;;7.35;100.00;97366.50;5048396;28;20422;-69
2022/11/07 06:39:46;;;;;;;5.90;2.35;;;8.40;99.90;;;7.41;100.00;97367.38;5047614;28;20433;-70
2022/11/07 06:42:12;;;;;;;4.82;2.65;;;8.50;99.90;;;7.45;100.00;97381.69;5049984;28;20739;-70
2022/11/07 06:44:41;;;;;;;4.32;2.10;;;8.50;99.90;;;7.48;100.00;97377.78;5061709;28;20626;-70
2022/11/07 06:47:06;;;;;;;6.07;2.30;;;8.50;99.90;;;7.47;100.00;97376.19;5067944;28;20399;-70
2022/11/07 06:49:32;;;;;;;7.32;2.55;;;8.50;99.90;;;7.56;100.00;97375.63;5051686;28;20821;-69
2022/11/07 06:51:58;;;;;;;12.63;2.80;;;8.60;99.90;;;7.51;100.00;97379.97;5048886;28;20653;-69
2022/11/07 06:54:24;;;;;;;7.90;2.57;;;8.60;99.90;;;7.55;100.00;97381.09;5041100;28;20914;-69
2022/11/07 06:56:51;;;;;;;6.10;2.50;;;8.60;99.90;;;7.53;100.00;97377.91;5046759;28;21047;-70
2022/11/07 06:59:17;;;;;;;7.25;2.45;;;8.60;99.90;;;7.66;100.00;97380.31;5050425;28;20817;-69
2022/11/07 07:01:43;;;;;;;6.22;2.28;;;8.70;99.90;;;7.66;100.00;97377.66;5052161;28;20569;-69
2022/11/07 07:04:10;;;;;;;5.65;2.38;;;8.70;99.90;;;7.69;100.00;97385.09;5046503;28;20451;-69
2022/11/07 07:06:38;;;;;;;7.10;2.15;;;8.70;99.90;;;7.68;100.00;97391.38;5051276;28;20428;-70
2022/11/07 07:09:05;;;;;;;9.18;2.30;;;8.70;99.90;;;7.66;100.00;97394.28;5034323;28;20405;-70
2022/11/07 07:11:35;;;;;;;6.50;2.50;;;8.70;99.90;;;7.68;100.00;97402.72;5052413;28;20405;-69
2022/11/07 07:14:02;;;;;;;8.02;2.63;;;8.70;99.90;;;7.69;100.00;97398.25;5051486;28;20402;-69
2022/11/07 07:16:28;;;;;;;6.28;2.22;;;8.70;99.90;;;7.72;100.00;97410.97;5052155;28;20458;-70
2022/11/07 07:18:54;;;;;;;9.27;2.50;;;8.70;99.90;;;7.68;100.00;97415.91;5052687;28;20401;-70
2022/11/07 07:21:20;;;;;;;3.72;2.15;;;8.70;99.90;;;7.75;100.00;97421.03;5052557;28;20976;-69
2022/11/07 07:23:45;;;;;;;9.83;3.10;;;8.80;99.90;;;7.71;100.00;97426.00;5051442;28;20480;-70
2022/11/07 07:26:14;;;;;;;5.97;2.43;;;8.80;99.90;;;7.75;100.00;97426.31;5052245;28;20959;-70
2022/11/07 07:28:40;;;;;;;4.78;2.40;;;8.70;99.90;;;7.78;100.00;97426.66;5031227;28;20748;-69
2022/11/07 07:31:17;;;;;;;8.07;2.80;;;8.80;99.90;;;7.82;100.00;97423.56;5049143;28;20416;-69
2022/11/07 07:33:45;;;;;;;5.18;2.60;;;8.80;99.90;;;7.82;100.00;97429.63;5047625;28;20949;-69
2022/11/07 07:36:12;;;;;;;7.38;2.78;;;8.80;99.90;;;7.85;100.00;97420.47;5049242;28;20417;-69
2022/11/07 07:38:38;;;;;;;7.72;2.97;;;8.80;99.90;;;7.93;100.00;97430.63;5051887;28;20405;-68
2022/11/07 07:41:05;;;;;;;7.70;2.65;;;8.90;99.90;;;7.94;100.00;97426.97;5051826;28;20917;-68
2022/11/07 07:43:32;;;;;;;11.20;2.63;;;9.00;99.90;;;8.01;100.00;97428.44;5051157;28;20420;-69
2022/11/07 07:45:58;;;;;;;7.00;2.60;;;9.00;99.90;;;8.12;100.00;97429.44;5049766;28;20447;-68
2022/11/07 07:48:26;;;;;;;6.78;2.45;;;9.10;99.90;;;8.24;100.00;97424.13;5046903;28;20500;-69
2022/11/07 07:50:52;;;;;;;8.20;2.63;;;9.20;99.90;;;8.28;100.00;97422.63;5051892;28;20459;-69
2022/11/07 07:53:18;;;;;;;8.20;2.60;;;9.30;99.90;;;8.35;100.00;97420.66;5051161;28;20409;-69
2022/11/07 07:55:44;;;;;;;7.20;2.75;;;9.30;99.90;;;8.44;100.00;97427.19;5066794;22;21434;-76
2022/11/07 07:58:10;;;;;;;6.00;2.47;;;9.40;99.90;;;8.48;100.00;97429.13;5049401;28;20409;-82
2022/11/07 08:00:36;;;;;;;9.55;2.55;;;9.50;99.90;;;8.54;100.00;97422.91;5047643;28;20941;-79
2022/11/07 08:03:07;;;;;;;8.07;2.40;;;9.50;99.90;;;8.63;100.00;97418.03;5065400;28;20400;-75
2022/11/07 08:05:34;;;;;;;7.80;2.40;;;9.50;99.90;;;8.72;100.00;97426.38;5069323;28;20566;-76
2022/11/07 08:08:00;;;;;;;8.90;2.67;;;9.70;99.90;;;8.76;100.00;97425.66;5039542;28;20910;-75
2022/11/07 08:10:26;;;;;;;8.77;2.20;;;9.70;99.90;;;8.79;100.00;97425.19;5037028;28;20494;-72
2022/11/07 08:12:52;;;;;;;11.17;2.77;;;9.70;99.90;;;8.81;100.00;97425.72;5066002;28;20417;-75
2022/11/07 08:15:18;;;;;;;8.63;2.88;;;9.80;99.90;;;8.83;100.00;97428.94;5067721;28;20435;-76
2022/11/07 08:17:45;;;;;;;6.97;2.30;;;9.80;99.90;;;8.96;100.00;97427.00;5055116;28;20401;-79
2022/11/07 08:20:14;;;;;;;4.90;2.00;;;9.90;99.90;;;9.04;100.00;97437.19;5062067;28;20412;-79
2022/11/07 08:22:41;;;;;;;8.63;2.43;;;9.90;99.90;;;9.10;100.00;97434.38;5063261;28;20425;-79
2022/11/07 08:25:10;;;;;;;6.80;2.20;;;10.00;99.90;;;9.09;100.00;97435.44;5041124;28;20506;-78
2022/11/07 08:27:36;;;;;;;7.38;2.60;;;10.00;99.90;;;9.09;100.00;97442.56;5043504;28;20405;-79
2022/11/07 08:30:04;;;;;;;5.82;2.50;;;10.00;99.90;;;9.06;100.00;97425.34;5050235;28;20420;-78
2022/11/07 08:32:35;;;;;;;5.17;2.20;;;10.00;99.90;;;9.11;100.00;97435.19;5053382;28;20473;-77
2022/11/07 08:35:00;;;;;;;9.63;2.50;;;10.10;99.90;;;9.08;100.00;97433.84;5068955;28;20416;-77
2022/11/07 08:37:26;;;;;;;9.00;2.20;;;10.10;99.90;;;9.16;100.00;97422.88;5056878;28;20913;-81
2022/11/07 08:39:53;;;;;;;5.10;2.00;;;10.10;99.90;;;9.25;100.00;97423.25;5060544;28;20393;-81
2022/11/07 08:42:19;;;;;;;5.70;2.10;;;10.20;99.90;;;9.22;100.00;97423.75;5034276;28;20425;-83
2022/11/07 08:44:45;;;;;;;10.07;2.55;;;10.10;99.90;;;9.43;100.00;97424.84;5037963;28;20928;-76
2022/11/07 08:47:11;;;;;;;8.98;2.70;;;10.20;99.90;;;9.67;100.00;97429.69;5031978;28;20403;-80
2022/11/07 08:49:37;;;;;;;9.15;2.00;;;10.50;99.90;;;9.63;100.00;97430.41;5037218;28;20403;-80
2022/11/07 08:52:03;;;;;;;15.35;2.90;;;10.50;99.90;;;9.54;100.00;97427.41;5034083;28;20773;-80
2022/11/07 08:54:29;;;;;;;6.50;1.90;;;10.50;99.90;;;9.58;100.00;97423.22;5036650;28;20438;-83
2022/11/07 08:56:56;;;;;;;10.57;2.80;;;10.50;99.90;;;9.78;100.00;97427.97;5032622;28;20402;-77
2022/11/07 08:59:22;;;;;;;6.15;2.30;;;10.50;99.90;;;9.98;100.00;97427.44;5033193;28;20770;-83
2022/11/07 09:01:48;;;;;;;5.32;2.58;;;10.80;99.90;;;9.88;100.00;97412.25;5031290;28;20402;-77
2022/11/07 09:04:14;;;;;;;8.30;2.22;;;10.80;99.90;;;10.02;100.00;97421.41;5034363;28;20811;-78
2022/11/07 09:06:41;;;;;;;10.00;2.90;;;10.80;99.90;;;9.99;100.00;97429.84;5030986;28;20697;-77
2022/11/07 09:09:08;;;;;;;4.25;1.70;;;10.90;99.90;;;10.02;100.00;97433.81;5031092;28;20457;-77
2022/11/07 09:11:33;;;;;;;4.70;1.80;;;10.90;99.90;;;10.06;100.00;97437.59;5030822;28;20408;-73
2022/11/07 09:14:01;;;;;;;7.93;2.50;;;10.90;99.90;;;10.28;100.00;97433.13;5029776;28;20523;-78
2022/11/07 09:16:27;;;;;;;12.82;2.88;;;11.10;99.90;;;10.07;100.00;97436.56;5034329;28;20916;-77
2022/11/07 09:18:54;;;;;;;5.32;2.20;;;11.00;99.90;;;10.24;100.00;97439.94;5033917;28;21346;-84
2022/11/07 09:21:20;;;;;;;3.15;1.75;;;11.10;99.90;;;10.28;100.00;97435.78;5032803;28;20412;-75
2022/11/07 09:23:46;;;;;;;4.10;1.80;;;11.10;99.90;;;10.29;100.00;97445.31;5029517;28;20399;-78
2022/11/07 09:26:12;;;;;;;5.07;1.80;;;11.10;99.90;;;10.31;100.00;97439.75;5030252;28;20864;-76
2022/11/07 09:29:03;;;;;;;3.67;1.92;;;11.20;99.90;;;10.37;100.00;97436.13;5030546;28;20413;-79
2022/11/07 09:31:29;;;;;;;4.95;1.80;;;11.20;99.90;;;10.36;100.00;97442.47;5027786;28;20843;-76
2022/11/07 09:33:55;;;;;;;8.90;2.50;;;11.20;99.90;;;10.52;100.00;97446.88;5029831;28;20436;-80
2022/11/07 09:36:22;;;;;;;5.57;2.20;;;11.40;99.90;;;10.56;100.00;97449.81;5030281;28;20434;-76
2022/11/07 09:38:49;;;;;;;9.73;2.40;;;11.40;99.90;;;10.55;100.00;97456.97;5030221;28;20965;-78
2022/11/07 09:41:32;;;;;;;7.63;2.00;;;11.40;99.90;;;10.80;100.00;97451.94;5029378;28;20403;-81
2022/11/07 09:44:20;;;;;;;8.15;2.08;;;11.50;99.90;;;10.70;100.00;97457.13;5029125;28;20891;-79
2022/11/07 09:46:56;;;;;;;7.88;2.28;;;11.60;99.90;;;10.86;100.00;97456.22;5033121;28;20899;-83
2022/11/07 09:49:30;;;;;;;9.25;2.53;;;11.60;99.90;;;10.67;100.00;97460.28;5037783;28;20403;-84
2022/11/07 09:52:04;;;;;;;6.88;2.20;;;11.50;99.90;;;10.80;100.00;97454.59;5033801;28;20485;-79
2022/11/07 09:54:37;;;;;;;9.48;2.63;;;11.70;99.90;;;10.68;100.00;97447.81;5046892;28;20472;-79
2022/11/07 09:57:03;;;;;;;5.55;1.83;;;11.60;99.90;;;10.82;100.00;97451.69;5030578;28;20445;-78
2022/11/07 09:59:36;;;;;;;7.78;2.30;;;11.60;99.90;;;10.76;100.00;97445.53;5035343;28;20476;-83
2022/11/07 10:02:12;;;;;;;4.82;1.95;;;11.60;99.90;;;10.73;100.00;97453.97;5034341;28;20403;-80
2022/11/07 10:04:37;;;;;;;8.60;1.90;;;11.60;99.90;;;10.68;100.00;97453.09;5029106;28;20468;-77
2022/11/07 10:07:12;;;;;;;5.53;1.90;;;11.60;99.90;;;10.77;100.00;97441.81;5031710;28;20482;-84
2022/11/07 10:09:48;;;;;;;7.45;1.83;;;11.60;99.90;;;10.74;100.00;97449.50;5031200;28;20502;-81
2022/11/07 10:12:35;;;;;;;6.68;2.10;;;11.60;99.90;;;10.72;100.00;97451.59;5028929;28;20490;-75
2022/11/07 10:15:15;;;;;;;7.90;2.03;;;11.60;99.90;;;10.81;100.00;97452.72;5032047;28;20406;-81
2022/11/07 10:17:50;;;;;;;7.97;1.77;;;11.60;99.90;;;10.86;100.00;97458.88;5030646;28;20395;-78
2022/11/07 10:20:35;;;;;;;9.95;2.20;;;11.60;99.90;;;11.02;100.00;97449.22;5029739;28;20399;-75
2022/11/07 10:23:27;;;;;;;8.05;2.22;;;11.90;99.90;;;10.94;100.00;97459.47;5028045;28;20418;-75
2022/11/07 10:26:02;;;;;;;7.63;2.13;;;11.80;99.90;;;11.01;100.00;97455.56;5044771;28;20927;-75
2022/11/07 10:28:35;;;;;;;6.72;1.90;;;11.80;99.90;;;11.02;100.00;97449.22;5029684;28;20403;-74
2022/11/07 10:31:09;;;;;;;11.52;2.35;;;11.90;99.90;;;11.06;100.00;97447.66;5028596;28;20399;-75
2022/11/07 10:33:42;;;;;;;5.45;1.85;;;11.90;99.90;;;11.20;100.00;97448.81;5031396;28;20406;-78
2022/11/07 10:36:20;;;;;;;8.63;2.00;;;12.00;99.90;;;11.28;100.00;97449.44;5035838;28;20488;-78